Time;durP1;ratioP1;P1;durP2;ratioP2;P2;SDS_P1;SDS_P2;PMS_P1;PMS_P2;Temp;Humidity;BMP_temperature;BMP_pressure;BME280_temperature;BME280_humidity;BME280_pressure;Samples;Min_cycle;Max_cycle;Signal;HPM_P1;HPM_P2
2022/11/22 00:00:11;;;;;;;14.00;5.32;;;;;;;;;;5018702;28;93585;-66
2022/11/22 00:02:38;;;;;;;14.45;5.07;;;;;;;;;;5015712;28;93291;-67
2022/11/22 00:05:04;;;;;;;20.30;5.80;;;;;;;;;;5015340;28;93402;-66
2022/11/22 00:07:30;;;;;;;11.43;5.20;;;;;;;;;;5015986;28;91683;-66
2022/11/22 00:09:57;;;;;;;17.77;6.03;;;;;;;;;;5015104;28;92753;-66
2022/11/22 00:12:23;;;;;;;14.18;5.55;;;;;;;;;;5013531;28;94090;-66
2022/11/22 00:14:49;;;;;;;19.40;5.88;;;;;;;;;;5013568;27;94913;-66
2022/11/22 00:17:22;;;;;;;19.42;5.88;;;;;;;;;;5014307;28;95570;-66
2022/11/22 00:19:48;;;;;;;14.60;6.57;;;;;;;;;;5013820;28;93698;-67
2022/11/22 00:22:14;;;;;;;12.13;5.82;;;;;;;;;;5016461;28;92533;-66
2022/11/22 00:24:40;;;;;;;12.60;6.00;;;;;;;;;;5013485;28;94931;-67
2022/11/22 00:27:07;;;;;;;21.60;6.45;;;;;;;;;;5013184;28;92469;-67
2022/11/22 00:29:33;;;;;;;17.88;5.80;;;;;;;;;;5015638;28;94298;-66
2022/11/22 00:31:59;;;;;;;13.48;4.90;;;;;;;;;;5013931;28;92774;-66
2022/11/22 00:34:25;;;;;;;12.65;5.22;;;;;;;;;;5029236;28;92306;-67
2022/11/22 00:36:52;;;;;;;18.48;6.43;;;;;;;;;;5015094;28;93645;-66
2022/11/22 00:39:18;;;;;;;14.40;5.88;;;;;;;;;;5013366;28;95877;-66
2022/11/22 00:41:44;;;;;;;17.95;6.00;;;;;;;;;;5032034;28;92578;-67
2022/11/22 00:44:10;;;;;;;13.40;5.78;;;;;;;;;;5014893;28;93396;-67
2022/11/22 00:46:37;;;;;;;14.50;6.00;;;;;;;;;;5015939;28;92524;-67
2022/11/22 00:49:03;;;;;;;13.95;5.20;;;;;;;;;;5022238;28;93187;-66
2022/11/22 00:51:29;;;;;;;13.77;5.30;;;;;;;;;;5015421;28;92573;-67
2022/11/22 00:53:55;;;;;;;12.52;5.93;;;;;;;;;;5015400;28;92412;-67
2022/11/22 00:56:22;;;;;;;13.27;5.85;;;;;;;;;;5015868;28;94268;-66
2022/11/22 00:58:48;;;;;;;13.35;6.07;;;;;;;;;;5014801;28;93782;-66
2022/11/22 01:01:14;;;;;;;18.13;6.10;;;;;;;;;;5013693;28;92450;-66
2022/11/22 01:03:40;;;;;;;17.80;5.75;;;;;;;;;;5015705;28;95114;-67
2022/11/22 01:06:07;;;;;;;14.88;5.53;;;;;;;;;;5014909;28;92574;-66
2022/11/22 01:08:33;;;;;;;16.40;5.18;;;;;;;;;;5015109;28;94215;-67
2022/11/22 01:11:00;;;;;;;13.23;5.43;;;;;;;;;;5014627;28;93772;-67
2022/11/22 01:13:27;;;;;;;14.18;5.55;;;;;;;;;;5013511;28;92529;-66
2022/11/22 01:15:58;;;;;;;14.48;5.82;;;;;;;;;;5014469;28;93493;-67
2022/11/22 01:18:25;;;;;;;14.88;5.82;;;;;;;;;;5014700;28;93839;-66
2022/11/22 01:20:51;;;;;;;16.08;5.97;;;;;;;;;;5014942;28;91782;-67
2022/11/22 01:23:17;;;;;;;17.10;5.80;;;;;;;;;;5013946;28;92774;-66
2022/11/22 01:25:44;;;;;;;14.45;6.40;;;;;;;;;;5015881;28;93514;-67
2022/11/22 01:28:10;;;;;;;14.32;5.63;;;;;;;;;;5013314;28;94854;-67
2022/11/22 01:30:36;;;;;;;19.00;6.63;;;;;;;;;;5014668;28;93748;-66
2022/11/22 01:33:03;;;;;;;18.33;5.82;;;;;;;;;;4997634;28;93045;-66
2022/11/22 01:35:29;;;;;;;16.85;5.82;;;;;;;;;;5014837;27;93190;-66
2022/11/22 01:37:56;;;;;;;17.90;6.53;;;;;;;;;;5007739;28;93221;-67
2022/11/22 01:40:22;;;;;;;20.77;7.15;;;;;;;;;;5014393;28;92450;-66
2022/11/22 01:42:52;;;;;;;22.02;5.95;;;;;;;;;;5013336;28;93506;-66
2022/11/22 01:45:36;;;;;;;12.27;5.93;;;;;;;;;;5014531;28;93309;-67
2022/11/22 01:48:05;;;;;;;15.32;6.25;;;;;;;;;;5016320;28;93213;-67
2022/11/22 01:50:33;;;;;;;10.05;5.35;;;;;;;;;;5011199;28;96292;-67
2022/11/22 01:53:02;;;;;;;18.20;6.18;;;;;;;;;;5013731;28;94859;-67
2022/11/22 01:55:29;;;;;;;22.65;6.43;;;;;;;;;;5027961;27;95577;-67
2022/11/22 01:57:55;;;;;;;13.18;5.90;;;;;;;;;;5024135;27;93494;-67
2022/11/22 02:00:22;;;;;;;16.48;6.03;;;;;;;;;;5017938;27;92648;-67
2022/11/22 02:02:50;;;;;;;15.90;6.65;;;;;;;;;;5011516;28;93226;-68
2022/11/22 02:05:17;;;;;;;17.50;6.30;;;;;;;;;;5011997;28;94502;-67
2022/11/22 02:07:48;;;;;;;15.88;5.70;;;;;;;;;;5013574;28;92513;-67
2022/11/22 02:10:17;;;;;;;17.80;6.15;;;;;;;;;;5017688;28;93644;-68
2022/11/22 02:12:44;;;;;;;12.07;5.75;;;;;;;;;;5012594;28;92643;-67
2022/11/22 02:15:10;;;;;;;19.67;5.95;;;;;;;;;;5013606;28;93205;-67
2022/11/22 02:17:37;;;;;;;17.55;6.90;;;;;;;;;;5011576;28;96042;-67
2022/11/22 02:20:05;;;;;;;12.80;5.90;;;;;;;;;;5012940;28;93211;-67
2022/11/22 02:22:34;;;;;;;17.10;5.45;;;;;;;;;;5012931;28;93012;-67
2022/11/22 02:25:12;;;;;;;16.10;5.80;;;;;;;;;;5014142;28;93511;-67
2022/11/22 02:27:39;;;;;;;13.10;5.75;;;;;;;;;;5016276;28;92500;-67
2022/11/22 02:30:05;;;;;;;15.23;4.65;;;;;;;;;;5018670;28;94023;-67
2022/11/22 02:32:32;;;;;;;20.15;6.10;;;;;;;;;;5016920;28;92296;-67
2022/11/22 02:34:58;;;;;;;25.33;5.65;;;;;;;;;;5017095;28;93267;-67
2022/11/22 02:37:26;;;;;;;9.48;4.10;;;;;;;;;;5014893;28;93448;-67
2022/11/22 02:39:55;;;;;;;17.98;4.47;;;;;;;;;;5015804;28;92413;-67
2022/11/22 02:42:23;;;;;;;15.27;4.20;;;;;;;;;;5013688;28;95254;-67
2022/11/22 02:44:49;;;;;;;19.45;4.43;;;;;;;;;;5015768;28;93769;-67
2022/11/22 02:47:15;;;;;;;23.08;4.82;;;;;;;;;;5016495;28;92654;-67
2022/11/22 02:49:41;;;;;;;12.95;3.58;;;;;;;;;;5015363;28;93159;-67
2022/11/22 02:52:08;;;;;;;13.38;3.70;;;;;;;;;;5020221;28;96446;-67
2022/11/22 02:54:34;;;;;;;12.38;3.45;;;;;;;;;;5015377;28;93146;-67
2022/11/22 02:57:01;;;;;;;14.02;3.35;;;;;;;;;;5015884;28;93368;-67
2022/11/22 02:59:27;;;;;;;21.90;3.85;;;;;;;;;;5015897;28;91735;-66
2022/11/22 03:01:54;;;;;;;19.15;3.75;;;;;;;;;;5016213;28;92501;-66
2022/11/22 03:04:28;;;;;;;18.75;3.42;;;;;;;;;;5013876;28;92488;-65
2022/11/22 03:06:55;;;;;;;15.00;3.45;;;;;;;;;;5013509;28;95025;-66
2022/11/22 03:09:25;;;;;;;13.93;3.28;;;;;;;;;;5012962;28;95807;-66
2022/11/22 03:11:52;;;;;;;19.98;3.40;;;;;;;;;;5015532;28;94512;-66
2022/11/22 03:14:19;;;;;;;15.95;4.35;;;;;;;;;;5018009;28;92579;-65
2022/11/22 03:16:46;;;;;;;20.83;3.97;;;;;;;;;;5016280;28;92673;-66
2022/11/22 03:19:12;;;;;;;26.15;3.60;;;;;;;;;;5016474;28;92438;-67
2022/11/22 03:21:40;;;;;;;15.20;3.45;;;;;;;;;;5014767;28;93166;-66
2022/11/22 03:24:06;;;;;;;22.73;3.78;;;;;;;;;;5014783;28;93120;-66
2022/11/22 03:26:33;;;;;;;12.75;2.95;;;;;;;;;;5014658;28;92447;-65
2022/11/22 03:29:00;;;;;;;18.33;3.10;;;;;;;;;;5015159;28;93449;-66
2022/11/22 03:31:26;;;;;;;22.83;3.55;;;;;;;;;;5013478;28;95801;-66
2022/11/22 03:33:52;;;;;;;16.30;2.75;;;;;;;;;;5012450;28;92475;-66
2022/11/22 03:36:19;;;;;;;19.70;3.25;;;;;;;;;;5015552;28;93985;-66
2022/11/22 03:38:45;;;;;;;18.42;3.20;;;;;;;;;;5014566;28;92537;-68
2022/11/22 03:41:11;;;;;;;28.75;3.72;;;;;;;;;;5015585;28;93120;-66
2022/11/22 03:43:38;;;;;;;15.15;3.15;;;;;;;;;;5015261;28;96912;-66
2022/11/22 03:46:04;;;;;;;19.98;3.47;;;;;;;;;;5015750;28;92435;-66
2022/11/22 03:48:30;;;;;;;20.58;3.55;;;;;;;;;;5016447;28;93507;-66
2022/11/22 03:51:03;;;;;;;12.35;2.63;;;;;;;;;;5008179;28;93897;-68
2022/11/22 03:53:30;;;;;;;21.88;3.53;;;;;;;;;;5015171;28;93303;-66
2022/11/22 03:55:56;;;;;;;18.00;2.72;;;;;;;;;;5013730;28;94874;-66
2022/11/22 03:58:23;;;;;;;16.40;2.85;;;;;;;;;;5017811;28;93746;-66
2022/11/22 04:00:49;;;;;;;14.60;3.25;;;;;;;;;;5014456;28;93226;-66
2022/11/22 04:03:15;;;;;;;17.27;3.38;;;;;;;;;;5014189;28;93417;-66
2022/11/22 04:05:43;;;;;;;20.02;3.50;;;;;;;;;;5014619;28;92485;-66
2022/11/22 04:08:09;;;;;;;12.40;2.67;;;;;;;;;;5014795;28;93211;-66
2022/11/22 04:10:35;;;;;;;18.75;3.20;;;;;;;;;;5013521;28;93545;-66
2022/11/22 04:13:02;;;;;;;17.30;3.28;;;;;;;;;;5014302;28;91686;-68
2022/11/22 04:15:28;;;;;;;16.15;2.70;;;;;;;;;;5015492;28;92906;-66
2022/11/22 04:17:54;;;;;;;24.10;3.67;;;;;;;;;;5014770;28;93300;-66
2022/11/22 04:23:07;;;;;;;23.35;3.30;;;;;;;;;;5010000;28;96113;-66
2022/11/22 04:25:34;;;;;;;19.98;3.53;;;;;;;;;;5013111;28;92469;-67
2022/11/22 04:28:00;;;;;;;20.83;2.88;;;;;;;;;;5014931;28;94240;-66
2022/11/22 04:33:12;;;;;;;21.90;3.00;;;;;;;;;;5014374;28;92465;-66
2022/11/22 04:35:39;;;;;;;20.80;3.60;;;;;;;;;;5013810;28;93009;-67
2022/11/22 04:38:05;;;;;;;18.27;2.63;;;;;;;;;;5014590;28;92646;-67
2022/11/22 04:40:32;;;;;;;26.80;3.97;;;;;;;;;;5017525;28;92387;-67
2022/11/22 04:45:44;;;;;;;19.23;2.75;;;;;;;;;;5012959;28;94792;-66
2022/11/22 04:48:11;;;;;;;22.17;2.97;;;;;;;;;;5015033;28;96530;-66
2022/11/22 04:53:23;;;;;;;13.13;2.63;;;;;;;;;;5010703;28;93766;-66
2022/11/22 04:55:50;;;;;;;19.17;3.42;;;;;;;;;;5015199;28;93176;-66
2022/11/22 04:58:16;;;;;;;18.85;2.83;;;;;;;;;;5026299;28;93978;-66
2022/11/22 05:00:43;;;;;;;17.25;2.70;;;;;;;;;;5012991;28;92495;-66
2022/11/22 05:03:09;;;;;;;20.15;2.75;;;;;;;;;;5018186;28;93404;-66
2022/11/22 05:05:36;;;;;;;23.40;3.30;;;;;;;;;;5017271;27;92471;-67
2022/11/22 05:08:03;;;;;;;22.85;2.92;;;;;;;;;;5015165;28;93231;-67
2022/11/22 05:10:55;;;;;;;14.57;3.00;;;;;;;;;;5012613;28;95795;-67
2022/11/22 05:13:20;;;;;;;17.50;2.60;;;;;;;;;;5023170;28;93822;-67
2022/11/22 05:15:46;;;;;;;18.20;2.55;;;;;;;;;;5014739;27;93248;-67
2022/11/22 05:18:13;;;;;;;13.98;2.95;;;;;;;;;;5018890;28;93308;-67
2022/11/22 05:20:39;;;;;;;17.85;2.55;;;;;;;;;;5013551;28;92474;-67
2022/11/22 05:25:50;;;;;;;19.08;3.10;;;;;;;;;;5024035;28;93987;-67
2022/11/22 05:28:16;;;;;;;12.68;2.45;;;;;;;;;;5026672;28;93409;-67
2022/11/22 05:30:42;;;;;;;24.33;3.90;;;;;;;;;;5020140;27;93400;-67
2022/11/22 05:33:09;;;;;;;13.68;2.03;;;;;;;;;;5014173;28;92669;-67
2022/11/22 05:35:35;;;;;;;25.73;3.13;;;;;;;;;;5028559;28;94907;-66
2022/11/22 05:38:01;;;;;;;20.98;2.92;;;;;;;;;;5022364;28;95223;-67
2022/11/22 05:40:28;;;;;;;17.60;2.92;;;;;;;;;;5023112;27;92428;-67
2022/11/22 05:42:54;;;;;;;17.55;3.08;;;;;;;;;;5018858;28;93510;-67
2022/11/22 05:45:20;;;;;;;10.30;2.45;;;;;;;;;;5031170;27;93461;-67
2022/11/22 05:47:46;;;;;;;18.48;2.63;;;;;;;;;;5015040;28;92599;-67
2022/11/22 05:50:13;;;;;;;18.83;2.40;;;;;;;;;;5014305;28;94131;-68
2022/11/22 05:52:39;;;;;;;14.65;2.63;;;;;;;;;;5010744;28;91751;-67
2022/11/22 05:55:06;;;;;;;18.17;4.05;;;;;;;;;;5014056;28;93654;-67
2022/11/22 05:57:32;;;;;;;9.73;2.83;;;;;;;;;;5012663;28;93873;-67
2022/11/22 05:59:58;;;;;;;15.98;2.55;;;;;;;;;;5011754;28;94827;-67
2022/11/22 06:02:24;;;;;;;19.77;2.72;;;;;;;;;;5016792;28;95591;-67
2022/11/22 06:04:51;;;;;;;20.23;3.38;;;;;;;;;;5016406;28;93338;-67
2022/11/22 06:07:17;;;;;;;19.35;2.95;;;;;;;;;;5017746;28;92462;-67
2022/11/22 06:09:44;;;;;;;17.23;2.45;;;;;;;;;;5020528;28;93182;-68
2022/11/22 06:12:10;;;;;;;14.60;2.90;;;;;;;;;;5017508;28;92496;-67
2022/11/22 06:14:36;;;;;;;17.00;3.10;;;;;;;;;;5015303;28;93158;-66
2022/11/22 06:17:08;;;;;;;19.13;2.67;;;;;;;;;;5016822;28;92814;-66
2022/11/22 06:19:34;;;;;;;22.00;2.72;;;;;;;;;;5016152;28;92413;-66
2022/11/22 06:22:01;;;;;;;23.33;2.72;;;;;;;;;;5016304;28;93998;-66
2022/11/22 06:24:27;;;;;;;16.45;3.05;;;;;;;;;;5014286;28;95878;-66
2022/11/22 06:26:53;;;;;;;19.30;3.47;;;;;;;;;;5016843;28;92474;-66
2022/11/22 06:29:19;;;;;;;15.65;2.55;;;;;;;;;;5017580;28;93973;-66
2022/11/22 06:31:46;;;;;;;10.32;1.95;;;;;;;;;;5019400;28;93872;-66
2022/11/22 06:34:13;;;;;;;18.27;2.58;;;;;;;;;;5017060;28;93250;-66
2022/11/22 06:36:39;;;;;;;12.88;2.38;;;;;;;;;;5015660;28;93589;-67
2022/11/22 06:39:05;;;;;;;16.08;2.55;;;;;;;;;;5017573;28;92398;-67
2022/11/22 06:41:33;;;;;;;13.20;2.50;;;;;;;;;;5017653;28;96197;-67
2022/11/22 06:44:03;;;;;;;10.20;2.50;;;;;;;;;;5017125;28;93450;-66
2022/11/22 06:46:29;;;;;;;19.33;2.75;;;;;;;;;;5017417;28;92742;-67
2022/11/22 06:48:56;;;;;;;12.35;2.40;;;;;;;;;;5014299;28;94874;-67
2022/11/22 06:51:23;;;;;;;9.45;2.33;;;;;;;;;;5020189;28;93351;-66
2022/11/22 06:53:50;;;;;;;12.52;2.25;;;;;;;;;;5016122;28;93216;-67
2022/11/22 06:56:18;;;;;;;17.00;4.03;;;;;;;;;;5015815;28;93402;-67
2022/11/22 06:58:45;;;;;;;11.80;2.88;;;;;;;;;;5012895;28;92460;-66
2022/11/22 07:01:15;;;;;;;17.55;3.03;;;;;;;;;;5028882;28;93512;-66
2022/11/22 07:03:42;;;;;;;16.23;2.80;;;;;;;;;;5021369;28;93802;-66
2022/11/22 07:06:09;;;;;;;16.27;2.97;;;;;;;;;;5018659;27;92141;-68
2022/11/22 07:08:35;;;;;;;21.15;3.65;;;;;;;;;;5036692;27;92795;-67
2022/11/22 07:11:03;;;;;;;13.57;2.95;;;;;;;;;;5036061;28;93949;-67
2022/11/22 07:13:29;;;;;;;13.20;3.47;;;;;;;;;;5022229;28;95735;-68
2022/11/22 07:15:56;;;;;;;11.18;2.80;;;;;;;;;;5016161;28;93361;-66
2022/11/22 07:18:22;;;;;;;12.73;2.72;;;;;;;;;;5020980;27;92622;-67
2022/11/22 07:20:49;;;;;;;15.23;2.95;;;;;;;;;;5016582;28;93200;-66
2022/11/22 07:23:15;;;;;;;9.93;3.60;;;;;;;;;;5029210;28;92555;-65
2022/11/22 07:25:45;;;;;;;13.15;2.30;;;;;;;;;;5032449;27;92428;-66
2022/11/22 07:28:12;;;;;;;18.17;2.87;;;;;;;;;;5015731;28;92508;-67
2022/11/22 07:30:39;;;;;;;13.10;2.47;;;;;;;;;;5014996;28;91920;-65
2022/11/22 07:33:09;;;;;;;15.77;3.00;;;;;;;;;;5015009;28;92483;-65
2022/11/22 07:35:35;;;;;;;17.15;3.28;;;;;;;;;;5019829;28;92456;-67
2022/11/22 07:38:02;;;;;;;10.85;2.30;;;;;;;;;;5014659;28;94859;-66
2022/11/22 07:40:28;;;;;;;12.18;2.80;;;;;;;;;;5011510;28;95593;-67
2022/11/22 07:42:55;;;;;;;14.98;2.30;;;;;;;;;;5015062;28;92525;-67
2022/11/22 07:45:24;;;;;;;9.57;2.30;;;;;;;;;;5016326;28;92439;-67
2022/11/22 07:47:50;;;;;;;13.27;3.70;;;;;;;;;;5016181;28;93268;-66
2022/11/22 07:50:16;;;;;;;28.33;4.88;;;;;;;;;;5014301;28;93439;-65
2022/11/22 07:52:42;;;;;;;16.77;3.60;;;;;;;;;;5005883;28;92661;-65
2022/11/22 07:55:10;;;;;;;15.80;3.45;;;;;;;;;;5001754;28;93019;-65
2022/11/22 07:57:39;;;;;;;19.30;2.95;;;;;;;;;;5009599;28;93421;-65
2022/11/22 08:00:06;;;;;;;15.45;3.05;;;;;;;;;;5017732;28;93147;-64
2022/11/22 08:02:32;;;;;;;20.80;3.10;;;;;;;;;;5022414;28;96527;-65
2022/11/22 08:04:58;;;;;;;16.63;3.80;;;;;;;;;;5017960;27;92526;-65
2022/11/22 08:07:25;;;;;;;17.23;3.75;;;;;;;;;;5024153;27;94695;-64
2022/11/22 08:09:51;;;;;;;19.63;3.58;;;;;;;;;;5027473;28;96306;-65
2022/11/22 08:12:17;;;;;;;14.07;3.15;;;;;;;;;;5027289;27;92536;-64
2022/11/22 08:14:44;;;;;;;10.52;4.20;;;;;;;;;;5032744;28;93477;-64
2022/11/22 08:17:10;;;;;;;19.52;3.47;;;;;;;;;;5010215;27;93808;-64
2022/11/22 08:19:36;;;;;;;20.38;4.10;;;;;;;;;;5008292;28;91786;-64
2022/11/22 08:22:02;;;;;;;20.05;3.22;;;;;;;;;;5010967;27;93493;-64
2022/11/22 08:24:29;;;;;;;17.20;3.20;;;;;;;;;;5031336;27;92406;-64
2022/11/22 08:26:55;;;;;;;14.43;3.10;;;;;;;;;;5022755;27;94966;-65
2022/11/22 08:29:21;;;;;;;11.27;2.47;;;;;;;;;;5025108;28;93231;-65
2022/11/22 08:31:47;;;;;;;10.38;2.85;;;;;;;;;;5029457;27;92486;-65
2022/11/22 08:34:14;;;;;;;12.60;2.72;;;;;;;;;;5026055;27;93274;-66
2022/11/22 08:36:40;;;;;;;14.70;3.05;;;;;;;;;;5019311;28;93485;-64
2022/11/22 08:39:06;;;;;;;24.83;4.03;;;;;;;;;;5023547;27;92352;-64
2022/11/22 08:41:32;;;;;;;12.02;2.70;;;;;;;;;;5020364;28;93251;-65
2022/11/22 08:43:59;;;;;;;16.20;3.22;;;;;;;;;;5036228;27;91620;-65
2022/11/22 08:46:25;;;;;;;9.52;2.72;;;;;;;;;;5011014;28;95040;-65
2022/11/22 08:48:52;;;;;;;18.55;2.53;;;;;;;;;;5011074;28;94336;-65
2022/11/22 08:51:19;;;;;;;15.60;3.25;;;;;;;;;;5011471;28;94947;-64
2022/11/22 08:53:45;;;;;;;15.50;2.80;;;;;;;;;;5014666;28;94938;-64
2022/11/22 08:56:13;;;;;;;16.27;3.53;;;;;;;;;;5004786;28;93722;-64
2022/11/22 08:58:39;;;;;;;13.10;3.00;;;;;;;;;;5013957;28;92934;-63
2022/11/22 09:01:10;;;;;;;16.15;3.30;;;;;;;;;;5015097;28;93411;-63
2022/11/22 09:03:36;;;;;;;;;;;;;;;;;;5028688;27;92538;-63
2022/11/22 09:06:03;;;;;;;12.32;3.03;;;;;;;;;;5032414;28;123457;-63
2022/11/22 09:08:50;;;;;;;12.50;3.78;;;;;;;;;;5010450;28;92377;-63
2022/11/22 09:11:34;;;;;;;13.77;2.92;;;;;;;;;;5005372;28;92628;-64
2022/11/22 09:14:00;;;;;;;15.88;3.20;;;;;;;;;;5005730;27;93519;-64
2022/11/22 09:16:27;;;;;;;13.27;3.03;;;;;;;;;;5008233;28;96125;-64
2022/11/22 09:18:56;;;;;;;8.02;3.10;;;;;;;;;;5012566;28;93011;-64
2022/11/22 09:21:23;;;;;;;22.65;3.08;;;;;;;;;;5030457;27;93475;-64
2022/11/22 09:23:52;;;;;;;5.63;2.72;;;;;;;;;;5023946;27;93443;-64
2022/11/22 09:26:20;;;;;;;9.80;3.25;;;;;;;;;;5019020;28;93093;-64
2022/11/22 09:28:46;;;;;;;12.48;3.83;;;;;;;;;;5014879;27;93562;-64
2022/11/22 09:31:14;;;;;;;12.50;2.50;;;;;;;;;;5012485;28;92502;-64
2022/11/22 09:33:43;;;;;;;16.20;2.72;;;;;;;;;;5015092;28;93225;-64
2022/11/22 09:36:11;;;;;;;7.95;2.78;;;;;;;;;;5011247;28;93434;-64
2022/11/22 09:38:38;;;;;;;14.20;3.15;;;;;;;;;;5021815;28;92507;-64
2022/11/22 09:41:16;;;;;;;14.70;3.33;;;;;;;;;;5027591;27;94983;-64
2022/11/22 09:43:48;;;;;;;11.40;3.17;;;;;;;;;;5025326;27;93879;-63
2022/11/22 09:46:20;;;;;;;12.40;3.13;;;;;;;;;;5010915;28;92654;-63
2022/11/22 09:48:58;;;;;;;14.13;3.10;;;;;;;;;;5013321;28;93959;-64
2022/11/22 09:51:28;;;;;;;13.88;3.05;;;;;;;;;;5024482;27;92433;-64
2022/11/22 09:53:57;;;;;;;19.48;3.58;;;;;;;;;;5023135;28;93302;-65
2022/11/22 09:56:24;;;;;;;13.33;2.53;;;;;;;;;;5026830;28;93240;-64
2022/11/22 09:58:57;;;;;;;15.60;2.67;;;;;;;;;;5022836;27;91680;-64
2022/11/22 10:01:30;;;;;;;13.80;2.78;;;;;;;;;;5012777;28;92418;-64
2022/11/22 10:04:00;;;;;;;12.23;3.33;;;;;;;;;;4999704;28;93741;-63
2022/11/22 10:06:28;;;;;;;8.40;2.73;;;;;;;;;;5020494;28;94934;-64
2022/11/22 10:09:02;;;;;;;12.43;3.22;;;;;;;;;;5015191;28;96007;-62
2022/11/22 10:11:29;;;;;;;18.52;3.47;;;;;;;;;;5010251;28;93482;-63
2022/11/22 10:14:04;;;;;;;20.73;3.53;;;;;;;;;;4993700;28;93137;-63
2022/11/22 10:16:36;;;;;;;11.70;3.25;;;;;;;;;;5008101;28;93609;-63
2022/11/22 10:19:09;;;;;;;17.27;3.70;;;;;;;;;;5013320;27;92458;-63
2022/11/22 10:21:35;;;;;;;12.98;3.40;;;;;;;;;;4993903;28;94204;-63
2022/11/22 10:24:01;;;;;;;7.18;2.70;;;;;;;;;;4993794;28;92652;-64
2022/11/22 10:26:34;;;;;;;9.48;3.08;;;;;;;;;;5002568;28;92459;-65
2022/11/22 10:29:15;;;;;;;13.93;4.85;;;;;;;;;;5013373;28;94668;-63
2022/11/22 10:31:50;;;;;;;9.25;2.55;;;;;;;;;;5009635;28;96207;-63
2022/11/22 10:34:27;;;;;;;16.85;2.95;;;;;;;;;;5004448;28;95496;-63
2022/11/22 10:36:59;;;;;;;15.10;3.28;;;;;;;;;;5007147;28;94343;-64
2022/11/22 10:39:45;;;;;;;10.05;2.17;;;;;;;;;;5010509;28;93198;-63
2022/11/22 10:42:21;;;;;;;17.08;2.47;;;;;;;;;;5013422;28;93592;-65
2022/11/22 10:45:06;;;;;;;11.48;2.53;;;;;;;;;;5013460;28;93548;-65
2022/11/22 10:47:52;;;;;;;11.65;2.47;;;;;;;;;;4995250;28;92476;-64
2022/11/22 10:50:22;;;;;;;12.27;2.75;;;;;;;;;;5008987;28;94558;-64
2022/11/22 10:53:06;;;;;;;10.00;2.42;;;;;;;;;;5013962;28;93516;-64
2022/11/22 10:55:52;;;;;;;4.82;2.03;;;;;;;;;;5018593;28;92560;-64
2022/11/22 10:58:30;;;;;;;9.57;2.90;;;;;;;;;;5013683;28;96748;-64
2022/11/22 11:01:20;;;;;;;13.68;2.83;;;;;;;;;;5013185;28;92564;-64
2022/11/22 11:03:47;;;;;;;9.90;2.80;;;;;;;;;;5013744;28;93515;-64
2022/11/22 11:06:13;;;;;;;16.83;3.20;;;;;;;;;;5014689;28;93496;-63
2022/11/22 11:09:01;;;;;;;7.03;2.60;;;;;;;;;;5018665;27;92896;-63
2022/11/22 11:11:49;;;;;;;16.48;2.05;;;;;;;;;;5036709;27;92934;-63
2022/11/22 11:14:22;;;;;;;10.13;3.00;;;;;;;;;;5017438;27;93272;-64
2022/11/22 11:16:48;;;;;;;7.03;2.13;;;;;;;;;;5019036;28;91711;-66
2022/11/22 11:19:18;;;;;;;10.93;2.80;;;;;;;;;;5033346;28;93436;-66
2022/11/22 11:21:45;;;;;;;22.63;3.38;;;;;;;;;;5021310;28;92460;-66
2022/11/22 11:24:13;;;;;;;8.70;2.30;;;;;;;;;;5014588;28;95189;-62
2022/11/22 11:26:40;;;;;;;8.15;2.67;;;;;;;;;;5026656;27;93726;-63
2022/11/22 11:29:26;;;;;;;14.07;3.28;;;;;;;;;;5012158;28;92458;-64
2022/11/22 11:32:11;;;;;;;8.25;2.30;;;;;;;;;;5017394;28;93138;-63
2022/11/22 11:34:39;;;;;;;18.90;3.95;;;;;;;;;;5015007;28;93141;-64
2022/11/22 11:37:09;;;;;;;14.60;3.70;;;;;;;;;;5015868;28;92432;-63
2022/11/22 11:39:36;;;;;;;13.35;3.08;;;;;;;;;;5017718;28;93362;-64
2022/11/22 11:42:20;;;;;;;6.20;2.35;;;;;;;;;;5016304;28;91730;-65
2022/11/22 11:44:47;;;;;;;17.63;3.72;;;;;;;;;;5014736;28;92466;-63
2022/11/22 11:47:30;;;;;;;11.13;2.60;;;;;;;;;;5015872;28;93490;-63
2022/11/22 11:49:57;;;;;;;7.28;2.17;;;;;;;;;;5011231;28;94946;-64
2022/11/22 11:52:24;;;;;;;5.22;2.03;;;;;;;;;;5000735;28;95628;-63
2022/11/22 11:54:53;;;;;;;4.45;1.40;;;;;;;;;;5006655;28;93650;-62
2022/11/22 11:57:25;;;;;;;10.00;1.77;;;;;;;;;;5012453;28;94410;-65
2022/11/22 11:59:52;;;;;;;4.70;1.60;;;;;;;;;;5018102;27;93182;-64
2022/11/22 12:02:31;;;;;;;7.57;3.00;;;;;;;;;;5014949;28;94137;-65
2022/11/22 12:05:24;;;;;;;5.25;2.03;;;;;;;;;;4995804;28;93469;-65
2022/11/22 12:07:50;;;;;;;8.77;2.13;;;;;;;;;;4992466;28;92491;-65
2022/11/22 12:10:28;;;;;;;7.07;1.80;;;;;;;;;;5018903;28;94300;-64
2022/11/22 12:13:21;;;;;;;5.05;1.73;;;;;;;;;;5033992;27;93270;-63
2022/11/22 12:15:54;;;;;;;4.00;1.65;;;;;;;;;;5008866;28;96672;-64
2022/11/22 12:18:24;;;;;;;11.52;1.80;;;;;;;;;;4995928;28;92323;-63
2022/11/22 12:20:54;;;;;;;5.85;2.50;;;;;;;;;;4999604;28;93449;-64
2022/11/22 12:23:23;;;;;;;5.03;1.85;;;;;;;;;;5030861;28;93420;-63
2022/11/22 12:25:52;;;;;;;4.85;1.95;;;;;;;;;;5028373;28;93007;-65
2022/11/22 12:28:20;;;;;;;3.75;1.80;;;;;;;;;;5035582;28;92548;-64
2022/11/22 12:30:53;;;;;;;6.32;2.08;;;;;;;;;;5014644;27;92494;-64
2022/11/22 12:33:23;;;;;;;9.48;2.35;;;;;;;;;;5015022;28;93316;-64
2022/11/22 12:35:52;;;;;;;5.82;2.13;;;;;;;;;;5018906;28;93616;-65
2022/11/22 12:38:32;;;;;;;9.20;2.50;;;;;;;;;;5005765;28;92467;-63
2022/11/22 12:41:01;;;;;;;5.65;2.20;;;;;;;;;;5008896;27;94866;-63
2022/11/22 12:43:31;;;;;;;2.15;1.73;;;;;;;;;;5022736;28;93892;-62
2022/11/22 12:46:00;;;;;;;9.20;2.05;;;;;;;;;;5025417;27;92769;-62
2022/11/22 12:48:32;;;;;;;3.13;1.60;;;;;;;;;;5017632;28;93153;-63
2022/11/22 12:51:02;;;;;;;8.55;2.30;;;;;;;;;;5017829;28;92490;-63
2022/11/22 12:53:33;;;;;;;3.13;2.00;;;;;;;;;;5030961;27;94918;-63
2022/11/22 12:56:00;;;;;;;7.32;1.90;;;;;;;;;;5034782;27;93380;-63
2022/11/22 12:58:29;;;;;;;3.55;1.50;;;;;;;;;;5035391;27;91693;-63
2022/11/22 13:01:04;;;;;;;2.67;1.27;;;;;;;;;;5019525;27;92978;-63
2022/11/22 13:03:35;;;;;;;8.65;1.85;;;;;;;;;;5020895;27;93450;-63
2022/11/22 13:06:01;;;;;;;;;;;;;;;;;;5024774;27;94944;-63
2022/11/22 13:08:32;;;;;;;2.55;1.13;;;;;;;;;;5018226;28;125640;-62
2022/11/22 13:11:07;;;;;;;1.85;1.60;;;;;;;;;;5011406;28;92512;-63
2022/11/22 13:13:36;;;;;;;1.90;1.35;;;;;;;;;;5020358;28;93135;-63
2022/11/22 13:16:06;;;;;;;1.73;1.27;;;;;;;;;;5024092;28;93697;-66
2022/11/22 13:18:35;;;;;;;3.22;1.27;;;;;;;;;;5014403;28;92359;-62
2022/11/22 13:21:02;;;;;;;2.05;1.10;;;;;;;;;;5014074;28;93010;-63
2022/11/22 13:23:28;;;;;;;3.75;1.00;;;;;;;;;;5016602;27;94261;-63
2022/11/22 13:25:57;;;;;;;3.03;1.50;;;;;;;;;;5014453;28;92534;-63
2022/11/22 13:28:26;;;;;;;1.40;1.30;;;;;;;;;;5012335;28;93526;-64
2022/11/22 13:31:15;;;;;;;1.92;1.20;;;;;;;;;;5015629;28;96284;-62
2022/11/22 13:33:51;;;;;;;2.08;1.30;;;;;;;;;;5010026;28;96028;-63
2022/11/22 13:36:26;;;;;;;3.70;1.50;;;;;;;;;;5030611;28;93613;-63
2022/11/22 13:38:54;;;;;;;6.18;1.67;;;;;;;;;;5024894;27;92420;-63
2022/11/22 13:41:26;;;;;;;1.70;1.30;;;;;;;;;;5012502;28;92603;-62
2022/11/22 13:43:54;;;;;;;3.47;1.77;;;;;;;;;;5012554;28;93669;-63
2022/11/22 13:46:39;;;;;;;3.38;1.08;;;;;;;;;;5014590;28;92498;-63
2022/11/22 13:49:07;;;;;;;3.90;2.13;;;;;;;;;;5012207;28;93458;-63
2022/11/22 13:51:48;;;;;;;5.97;2.45;;;;;;;;;;4993934;28;93725;-63
2022/11/22 13:54:36;;;;;;;4.43;1.88;;;;;;;;;;5017095;28;94020;-63
2022/11/22 13:57:21;;;;;;;8.30;3.50;;;;;;;;;;5032186;27;95894;-63
2022/11/22 14:00:07;;;;;;;3.92;2.17;;;;;;;;;;5015469;28;92493;-62
2022/11/22 14:02:33;;;;;;;3.50;2.30;;;;;;;;;;5012137;28;93114;-63
2022/11/22 14:05:00;;;;;;;2.53;2.33;;;;;;;;;;5018241;28;93521;-63
2022/11/22 14:07:36;;;;;;;4.03;1.70;;;;;;;;;;5010994;28;92902;-63
2022/11/22 14:10:04;;;;;;;8.02;2.00;;;;;;;;;;5013715;28;93449;-62
2022/11/22 14:12:49;;;;;;;5.53;2.95;;;;;;;;;;5012022;28;93838;-64
2022/11/22 14:15:18;;;;;;;7.57;3.20;;;;;;;;;;5014686;28;91731;-64
2022/11/22 14:17:47;;;;;;;8.07;3.13;;;;;;;;;;5015395;28;92448;-64
2022/11/22 14:20:33;;;;;;;2.08;1.60;;;;;;;;;;5011899;28;92541;-62
2022/11/22 14:23:02;;;;;;;3.63;2.17;;;;;;;;;;5012868;28;96524;-63
2022/11/22 14:25:47;;;;;;;3.10;2.00;;;;;;;;;;5035889;28;93893;-64
2022/11/22 14:28:26;;;;;;;4.65;2.10;;;;;;;;;;5036952;27;92487;-62
2022/11/22 14:30:52;;;;;;;4.28;2.80;;;;;;;;;;5017924;27;93860;-63
2022/11/22 14:33:23;;;;;;;1.98;1.50;;;;;;;;;;5034994;27;93841;-63
2022/11/22 14:35:49;;;;;;;;;;;;;;;;;;5032041;28;92446;-63
2022/11/22 14:38:22;;;;;;;2.55;0.90;;;;;;;;;;5018064;28;123100;-63
2022/11/22 14:41:13;;;;;;;3.58;1.15;;;;;;;;;;5021708;28;91903;-63
2022/11/22 14:43:40;;;;;;;1.30;1.20;;;;;;;;;;4997042;28;92553;-63
2022/11/22 14:46:17;;;;;;;5.75;1.77;;;;;;;;;;5006821;28;93780;-63
2022/11/22 14:49:12;;;;;;;3.30;1.23;;;;;;;;;;5011204;28;94978;-63
2022/11/22 14:51:39;;;;;;;9.48;1.38;;;;;;;;;;5029117;28;95921;-63
2022/11/22 14:54:27;;;;;;;1.27;0.95;;;;;;;;;;5035169;27;93929;-63
2022/11/22 14:56:55;;;;;;;2.78;1.23;;;;;;;;;;5014541;27;92860;-62
2022/11/22 14:59:47;;;;;;;2.10;1.00;;;;;;;;;;5015760;28;93380;-62